Time;durP1;ratioP1;P1;durP2;ratioP2;P2;SDS_P1;SDS_P2;PMS_P1;PMS_P2;Temp;Humidity;BMP_temperature;BMP_pressure;BME280_temperature;BME280_humidity;BME280_pressure;Samples;Min_cycle;Max_cycle;Signal;HPM_P1;HPM_P2
2022/01/12 00:01:21;;;;;;;340.35;60.22;;;4.10;99.90;;;;;;6046328;23;20023;-84
2022/01/12 00:03:47;;;;;;;318.25;61.22;;;4.10;99.90;;;;;;6041318;23;20027;-84
2022/01/12 00:06:14;;;;;;;325.35;62.63;;;4.10;99.90;;;;;;6040761;23;20358;-84
2022/01/12 00:08:40;;;;;;;333.33;61.75;;;4.10;99.90;;;;;;6040379;23;20505;-84
2022/01/12 00:11:08;;;;;;;188.07;46.08;;;4.10;99.90;;;;;;6040276;23;20023;-84
2022/01/12 00:13:34;;;;;;;265.45;55.95;;;4.10;99.90;;;;;;6064669;23;20033;-84
2022/01/12 00:16:03;;;;;;;321.02;60.97;;;4.10;99.90;;;;;;6081270;23;20404;-84
2022/01/12 00:18:30;;;;;;;313.38;57.55;;;4.10;99.90;;;;;;6100022;23;20025;-84
2022/01/12 00:20:55;;;;;;;354.73;62.22;;;4.10;99.90;;;;;;6075365;23;20022;-84
2022/01/12 00:23:22;;;;;;;348.58;62.85;;;4.10;99.90;;;;;;6075412;23;20036;-84
2022/01/12 00:26:05;;;;;;;219.27;49.03;;;4.10;99.90;;;;;;6123808;23;20029;-84
2022/01/12 00:34:02;;;;;;;223.23;51.00;;;4.10;99.90;;;;;;6123758;23;20473;-85
2022/01/12 00:36:32;;;;;;;408.80;71.68;;;4.10;99.90;;;;;;6098470;23;20396;-84
2022/01/12 00:38:59;;;;;;;487.90;77.85;;;4.10;99.90;;;;;;6123852;23;20022;-84
2022/01/12 00:41:28;;;;;;;510.02;86.70;;;4.10;99.90;;;;;;6127048;23;20022;-84
2022/01/12 00:44:10;;;;;;;412.58;70.47;;;4.10;99.90;;;;;;6105928;23;20022;-83
2022/01/12 00:46:39;;;;;;;471.05;76.40;;;4.10;99.90;;;;;;6105216;23;20525;-86
2022/01/12 00:49:05;;;;;;;461.33;72.68;;;4.10;99.90;;;;;;6100648;23;20104;-85
2022/01/12 00:51:33;;;;;;;551.05;88.90;;;4.10;99.90;;;;;;6125433;23;20026;-84
2022/01/12 00:54:00;;;;;;;499.27;81.38;;;4.10;99.90;;;;;;6099788;23;20022;-84
2022/01/12 00:56:26;;;;;;;505.48;82.28;;;4.10;99.90;;;;;;6125446;23;20386;-84
2022/01/12 00:58:52;;;;;;;451.45;74.03;;;4.10;99.90;;;;;;6099137;23;20035;-84
2022/01/12 01:01:20;;;;;;;396.42;72.20;;;4.10;99.90;;;;;;6123155;23;20026;-84
2022/01/12 01:03:47;;;;;;;466.30;78.88;;;4.10;99.90;;;;;;6126794;23;20028;-87
2022/01/12 01:06:13;;;;;;;321.25;59.50;;;4.20;99.90;;;;;;6126336;23;20030;-82
2022/01/12 01:08:41;;;;;;;501.95;80.32;;;4.20;99.90;;;;;;6123541;23;20121;-85
2022/01/12 01:11:27;;;;;;;391.63;71.55;;;4.20;99.90;;;;;;6099659;23;20022;-83
2022/01/12 01:27:06;;;;;;;172.55;46.92;;;4.20;99.90;;;;;;6129344;23;20457;-84
2022/01/12 01:29:32;;;;;;;225.00;50.20;;;4.20;99.90;;;;;;6107714;23;20030;-84
2022/01/12 01:31:58;;;;;;;326.92;60.63;;;4.20;99.90;;;;;;6107189;23;20057;-84
2022/01/12 01:34:26;;;;;;;224.10;51.58;;;4.20;99.90;;;;;;6129190;23;20022;-84
2022/01/12 01:36:54;;;;;;;210.45;52.85;;;4.20;99.90;;;;;;6076743;23;20078;-84
2022/01/12 01:39:26;;;;;;;228.52;52.45;;;4.20;99.90;;;;;;6079015;23;20029;-84
2022/01/12 01:42:02;;;;;;;218.43;48.75;;;4.20;99.90;;;;;;6128165;23;20029;-85
2022/01/12 01:55:18;;;;;;;205.55;47.47;;;4.30;99.90;;;;;;6080206;23;20061;-84
2022/01/12 01:57:44;;;;;;;165.68;43.88;;;4.30;99.90;;;;;;6126990;23;20054;-84
2022/01/12 02:00:15;;;;;;;181.43;45.47;;;4.30;99.90;;;;;;6100607;23;20588;-85
2022/01/12 02:02:43;;;;;;;148.48;42.50;;;4.40;99.90;;;;;;6099191;23;20018;-84
2022/01/12 02:05:17;;;;;;;174.95;43.13;;;4.30;99.90;;;;;;6100226;23;20026;-85
2022/01/12 02:07:43;;;;;;;154.05;41.33;;;4.40;99.90;;;;;;6098579;23;20517;-86
2022/01/12 02:10:09;;;;;;;160.27;41.70;;;4.40;99.90;;;;;;6080387;23;20061;-84
2022/01/12 02:12:35;;;;;;;158.43;39.90;;;4.40;99.90;;;;;;6128713;23;20026;-83
2022/01/12 02:15:03;;;;;;;146.30;38.17;;;4.50;99.90;;;;;;6105750;23;20096;-85
2022/01/12 02:17:38;;;;;;;131.88;37.72;;;4.50;99.90;;;;;;6107781;23;20026;-85
2022/01/12 02:36:29;;;;;;;117.03;31.15;;;4.10;99.90;;;;;;6101561;23;20029;-84
2022/01/12 02:41:41;;;;;;;271.75;44.63;;;3.90;99.90;;;;;;6100146;23;20037;-83
2022/01/12 02:55:11;;;;;;;131.35;28.83;;;3.30;99.90;;;;;;6126348;23;20057;-83
2022/01/12 02:57:36;;;;;;;95.68;25.10;;;3.30;99.90;;;;;;6100173;23;20029;-82
2022/01/12 03:00:11;;;;;;;83.43;23.52;;;3.20;99.90;;;;;;6076619;23;20018;-84
2022/01/12 03:02:39;;;;;;;108.40;26.60;;;3.20;99.90;;;;;;6080315;23;20362;-83
2022/01/12 03:08:20;;;;;;;104.80;25.15;;;3.10;99.90;;;;;;5998573;23;20066;-84
2022/01/12 03:10:48;;;;;;;89.47;23.45;;;3.10;99.90;;;;;;6013549;23;20107;-84
2022/01/12 03:13:14;;;;;;;90.95;24.48;;;3.00;99.90;;;;;;6012291;23;20027;-84
2022/01/12 03:15:41;;;;;;;103.85;27.10;;;3.00;99.90;;;;;;6008321;23;20330;-82
2022/01/12 03:18:39;;;;;;;147.65;27.80;;;3.00;99.90;;;;;;5984706;23;20098;-83
2022/01/12 03:21:07;;;;;;;126.90;28.10;;;2.90;99.90;;;;;;5928930;24;20044;-84
2022/01/12 03:23:38;;;;;;;185.35;35.13;;;2.80;99.90;;;;;;5949994;24;20069;-84
2022/01/12 03:26:11;;;;;;;167.27;35.72;;;2.80;99.90;;;;;;5929351;24;20118;-84
2022/01/12 03:28:39;;;;;;;185.38;34.67;;;2.70;99.90;;;;;;5928512;24;20032;-84
2022/01/12 03:31:13;;;;;;;362.20;54.60;;;2.70;99.90;;;;;;5929880;24;20117;-83
2022/01/12 03:39:00;;;;;;;191.75;31.92;;;2.50;99.90;;;;;;5930388;24;20025;-84
2022/01/12 03:41:29;;;;;;;371.80;42.58;;;2.50;99.90;;;;;;5937595;23;20027;-83
2022/01/12 03:43:58;;;;;;;203.93;31.58;;;2.40;99.90;;;;;;5984684;23;20020;-84
2022/01/12 03:46:29;;;;;;;331.55;42.45;;;2.40;99.90;;;;;;6007833;23;20031;-83
2022/01/12 03:48:55;;;;;;;255.23;37.13;;;2.40;99.90;;;;;;5986768;23;20023;-83
2022/01/12 03:51:21;;;;;;;215.50;37.85;;;2.30;99.90;;;;;;6035020;23;20066;-83
2022/01/12 03:53:46;;;;;;;144.02;27.70;;;2.30;99.90;;;;;;6093909;23;20053;-83
2022/01/12 03:56:12;;;;;;;62.28;20.20;;;2.20;99.90;;;;;;6124323;23;20051;-84
2022/01/12 03:58:38;;;;;;;131.02;27.05;;;2.20;99.90;;;;;;6100106;23;20481;-84
2022/01/12 04:01:04;;;;;;;78.25;22.10;;;2.20;99.90;;;;;;6099591;23;20261;-84
2022/01/12 04:03:36;;;;;;;78.70;22.35;;;2.20;99.90;;;;;;6125964;23;20025;-84
2022/01/12 04:08:48;;;;;;;88.47;20.95;;;2.20;99.90;;;;;;6082773;23;20026;-83
2022/01/12 04:11:22;;;;;;;74.70;19.05;;;2.20;99.90;;;;;;6080699;23;20022;-83
2022/01/12 04:13:49;;;;;;;74.70;18.48;;;2.20;99.90;;;;;;6053455;23;20026;-83
2022/01/12 04:16:16;;;;;;;64.30;16.95;;;2.20;99.90;;;;;;6126296;23;20018;-84
2022/01/12 04:18:42;;;;;;;42.88;13.15;;;2.20;99.90;;;;;;6075045;23;20080;-84
2022/01/12 04:21:10;;;;;;;76.20;15.82;;;2.30;99.90;;;;;;6099248;23;20025;-85
2022/01/12 04:23:37;;;;;;;55.90;14.23;;;2.20;99.90;;;;;;6099187;23;20022;-84
2022/01/12 04:26:11;;;;;;;50.35;13.38;;;2.20;99.90;;;;;;6075374;23;20252;-84
2022/01/12 04:28:40;;;;;;;63.50;14.98;;;2.10;99.90;;;;;;6094560;23;20114;-84
2022/01/12 04:31:09;;;;;;;65.82;14.02;;;2.00;99.90;;;;;;6093579;23;20458;-85
2022/01/12 04:33:36;;;;;;;48.08;13.35;;;2.00;99.90;;;;;;6099960;23;20068;-85
2022/01/12 04:36:04;;;;;;;73.88;14.80;;;2.00;99.90;;;;;;6099427;23;20446;-85
2022/01/12 04:38:33;;;;;;;47.20;12.27;;;2.00;99.90;;;;;;6095430;23;20030;-85
2022/01/12 04:41:01;;;;;;;43.28;13.38;;;1.90;99.90;;;;;;6072649;23;20404;-85
2022/01/12 04:43:27;;;;;;;68.38;15.75;;;2.00;99.90;;;;;;6100561;23;20036;-85
2022/01/12 04:50:51;;;;;;;79.35;15.18;;;1.90;99.90;;;;;;6094615;23;20037;-85
2022/01/12 04:53:19;;;;;;;65.95;14.20;;;1.90;99.90;;;;;;6097416;23;20366;-86
2022/01/12 04:55:46;;;;;;;76.88;18.27;;;1.90;99.90;;;;;;6071875;23;20073;-84
2022/01/12 04:58:14;;;;;;;61.58;15.40;;;1.90;99.90;;;;;;6096612;23;20037;-84
2022/01/12 05:00:45;;;;;;;61.72;15.32;;;2.00;99.90;;;;;;6048351;23;20090;-84
2022/01/12 05:09:12;;;;;;;95.10;18.85;;;2.00;99.90;;;;;;6042797;23;20093;-83
2022/01/12 05:14:24;;;;;;;44.90;12.38;;;2.00;99.90;;;;;;6045574;23;20107;-84
2022/01/12 05:16:51;;;;;;;58.97;14.75;;;2.00;99.90;;;;;;6046570;23;20042;-83
2022/01/12 05:19:16;;;;;;;65.90;12.93;;;1.90;99.90;;;;;;6025295;23;20410;-84
2022/01/12 05:21:42;;;;;;;34.05;11.25;;;1.80;99.90;;;;;;6052938;23;20050;-83
2022/01/12 05:24:10;;;;;;;51.92;11.85;;;1.80;99.90;;;;;;6024501;23;20111;-84
2022/01/12 05:26:36;;;;;;;54.58;13.20;;;1.90;99.90;;;;;;6019214;23;20102;-83
2022/01/12 05:29:04;;;;;;;55.08;12.20;;;1.80;99.90;;;;;;6043880;23;20126;-84
2022/01/12 05:31:30;;;;;;;62.80;14.32;;;1.90;99.90;;;;;;6047212;23;20022;-84
2022/01/12 05:33:59;;;;;;;31.33;10.35;;;1.80;99.90;;;;;;6046451;23;20113;-85
2022/01/12 05:36:31;;;;;;;36.25;9.68;;;1.80;99.90;;;;;;6079087;23;20021;-84
2022/01/12 05:39:12;;;;;;;34.97;9.20;;;1.80;99.90;;;;;;6080531;23;20022;-84
2022/01/12 05:41:42;;;;;;;44.83;10.98;;;1.90;99.90;;;;;;6127644;23;20500;-83
2022/01/12 05:44:10;;;;;;;48.15;11.10;;;1.90;99.90;;;;;;6101371;23;20049;-86
2022/01/12 05:46:41;;;;;;;52.10;11.35;;;1.80;99.90;;;;;;6119992;23;20386;-84
2022/01/12 05:49:36;;;;;;;39.53;9.60;;;1.80;99.90;;;;;;6105888;23;20032;-84
2022/01/12 05:52:03;;;;;;;139.73;22.75;;;1.80;99.90;;;;;;6101355;23;20049;-84
2022/01/12 05:54:29;;;;;;;54.78;9.85;;;1.80;99.90;;;;;;6101212;23;20026;-84
2022/01/12 05:56:55;;;;;;;46.00;9.60;;;1.70;99.90;;;;;;6102117;23;20057;-85
2022/01/12 05:59:23;;;;;;;34.30;8.07;;;1.50;99.90;;;;;;6057442;23;20109;-84
2022/01/12 06:01:51;;;;;;;29.45;9.48;;;1.50;99.90;;;;;;6106994;23;20056;-83
2022/01/12 06:04:21;;;;;;;44.00;10.27;;;1.60;99.90;;;;;;6082563;23;20025;-83
2022/01/12 06:06:47;;;;;;;43.92;11.82;;;1.70;99.90;;;;;;6078742;23;20470;-85
2022/01/12 06:09:13;;;;;;;35.38;9.45;;;1.80;99.90;;;;;;6100523;23;20022;-84
2022/01/12 06:11:38;;;;;;;50.63;12.68;;;1.80;99.90;;;;;;6126647;23;20450;-84
2022/01/12 06:14:05;;;;;;;41.72;9.93;;;1.80;99.90;;;;;;6100305;23;20018;-84
2022/01/12 06:16:35;;;;;;;37.95;10.07;;;1.90;99.90;;;;;;6100442;23;20021;-84
2022/01/12 06:19:04;;;;;;;52.15;11.02;;;1.90;99.90;;;;;;6052405;23;20460;-85
2022/01/12 06:21:34;;;;;;;57.58;12.02;;;1.90;99.90;;;;;;6099788;23;20026;-85
2022/01/12 06:24:00;;;;;;;53.50;12.68;;;1.90;99.90;;;;;;6074451;23;20026;-85
2022/01/12 06:26:27;;;;;;;39.42;9.68;;;1.80;99.90;;;;;;6124325;23;20025;-84
2022/01/12 06:31:46;;;;;;;44.53;10.93;;;1.80;99.90;;;;;;6011976;23;20073;-84
2022/01/12 06:34:20;;;;;;;40.75;9.45;;;1.70;99.90;;;;;;5990834;23;20032;-84
2022/01/12 06:36:49;;;;;;;51.58;9.85;;;1.70;99.90;;;;;;5987493;23;20042;-84
2022/01/12 06:39:17;;;;;;;44.70;10.25;;;1.60;99.90;;;;;;5985663;23;20115;-84
2022/01/12 06:41:43;;;;;;;54.72;11.13;;;1.60;99.90;;;;;;5984656;23;20034;-84
2022/01/12 06:44:21;;;;;;;48.53;9.20;;;1.60;99.90;;;;;;5984327;23;20020;-84
2022/01/12 06:46:55;;;;;;;50.40;11.55;;;1.60;99.90;;;;;;5963086;23;20034;-83
2022/01/12 06:49:22;;;;;;;64.65;12.85;;;1.60;99.90;;;;;;5984602;23;20034;-84
2022/01/12 06:51:48;;;;;;;69.70;13.65;;;1.60;99.90;;;;;;5985389;23;20374;-84
2022/01/12 06:54:18;;;;;;;70.63;14.32;;;1.60;99.90;;;;;;5990805;23;20034;-84
2022/01/12 06:56:44;;;;;;;93.95;16.20;;;1.70;99.90;;;;;;5969248;23;20088;-85
2022/01/12 06:59:10;;;;;;;151.88;21.55;;;1.70;99.90;;;;;;5987508;23;20027;-85
2022/01/12 07:01:36;;;;;;;203.20;24.23;;;1.80;99.90;;;;;;5984454;23;20111;-84
2022/01/12 07:04:06;;;;;;;192.38;21.05;;;1.80;99.90;;;;;;5962453;23;20028;-84
2022/01/12 07:06:34;;;;;;;206.18;21.40;;;1.80;99.90;;;;;;6008664;23;20020;-84
2022/01/12 07:09:00;;;;;;;187.20;23.10;;;1.80;99.90;;;;;;6045795;23;20061;-84
2022/01/12 07:11:26;;;;;;;221.57;23.70;;;1.90;99.90;;;;;;6080349;23;20022;-85
2022/01/12 07:13:52;;;;;;;179.70;17.23;;;1.90;99.90;;;;;;6105238;23;20081;-85
2022/01/12 07:16:19;;;;;;;152.00;16.70;;;1.90;99.90;;;;;;6105526;23;20449;-84
2022/01/12 07:18:45;;;;;;;199.15;18.70;;;1.80;99.90;;;;;;6057403;23;20029;-85
2022/01/12 07:21:11;;;;;;;231.10;21.65;;;1.80;99.90;;;;;;6125670;23;20025;-85
2022/01/12 07:23:37;;;;;;;115.47;13.25;;;1.80;99.90;;;;;;6126471;23;20030;-84
2022/01/12 07:26:03;;;;;;;179.73;15.05;;;1.70;99.90;;;;;;6075294;23;20021;-84
2022/01/12 07:28:30;;;;;;;95.85;14.20;;;1.70;99.90;;;;;;6097699;23;20078;-84
2022/01/12 07:31:01;;;;;;;138.20;12.98;;;1.60;99.90;;;;;;6076055;23;20022;-84
2022/01/12 07:33:27;;;;;;;105.50;10.60;;;1.60;99.90;;;;;;6075244;23;20334;-83
2022/01/12 07:35:56;;;;;;;201.23;16.42;;;1.50;99.90;;;;;;6100066;23;20135;-84
2022/01/12 07:38:22;;;;;;;105.65;11.38;;;1.50;99.90;;;;;;6124319;23;20465;-83
2022/01/12 07:40:47;;;;;;;168.02;15.30;;;1.40;99.90;;;;;;6100121;23;20053;-84
2022/01/12 07:43:13;;;;;;;159.10;13.82;;;1.40;99.90;;;;;;6126056;23;20026;-84
2022/01/12 07:45:39;;;;;;;137.55;13.98;;;1.40;99.90;;;;;;6076454;23;20104;-83
2022/01/12 07:48:05;;;;;;;166.05;15.02;;;1.40;99.90;;;;;;6100606;23;20037;-83
2022/01/12 07:50:31;;;;;;;178.43;16.15;;;1.40;99.90;;;;;;6124697;23;20133;-85
2022/01/12 07:53:00;;;;;;;87.53;8.45;;;1.40;99.90;;;;;;6130266;23;20026;-83
2022/01/12 07:55:26;;;;;;;51.28;6.72;;;1.50;99.90;;;;;;6104626;23;20053;-83
2022/01/12 07:57:52;;;;;;;95.13;10.35;;;1.50;99.90;;;;;;6101642;23;20030;-84
2022/01/12 08:00:20;;;;;;;90.22;8.63;;;1.50;99.90;;;;;;6099561;23;20401;-86
2022/01/12 08:02:46;;;;;;;96.75;10.38;;;1.50;99.90;;;;;;6099243;23;20025;-83
2022/01/12 08:05:12;;;;;;;79.95;9.23;;;1.50;99.90;;;;;;6076702;23;20088;-83
2022/01/12 08:07:39;;;;;;;75.03;9.65;;;1.50;99.90;;;;;;6103050;23;20030;-83
2022/01/12 08:10:07;;;;;;;62.97;10.48;;;1.60;99.90;;;;;;6105154;23;20029;-85
2022/01/12 08:12:33;;;;;;;52.15;8.18;;;1.70;99.90;;;;;;6104245;23;20054;-84
2022/01/12 08:14:59;;;;;;;39.95;6.32;;;1.70;99.90;;;;;;6103243;23;20030;-82
2022/01/12 08:17:24;;;;;;;74.75;8.32;;;1.70;99.90;;;;;;6123233;23;20090;-84
2022/01/12 08:19:54;;;;;;;50.70;6.70;;;1.70;99.90;;;;;;6100548;23;20465;-83
2022/01/12 08:22:19;;;;;;;57.33;7.45;;;1.70;99.90;;;;;;6123490;23;20049;-83
2022/01/12 08:24:46;;;;;;;115.40;11.98;;;1.70;99.90;;;;;;6100710;23;20032;-84
2022/01/12 08:27:24;;;;;;;74.00;8.25;;;1.70;99.90;;;;;;6080124;23;20018;-84
2022/01/12 08:30:01;;;;;;;146.55;14.73;;;1.70;99.90;;;;;;6047806;23;20026;-84
2022/01/12 08:32:30;;;;;;;68.82;11.23;;;1.90;99.90;;;;;;6067545;23;20030;-83
2022/01/12 08:34:57;;;;;;;142.15;15.85;;;1.90;99.90;;;;;;6070435;23;20399;-82
2022/01/12 08:37:22;;;;;;;137.15;14.55;;;2.00;99.90;;;;;;6096525;23;20032;-83
2022/01/12 08:39:49;;;;;;;123.15;14.20;;;2.10;99.90;;;;;;6094948;23;20058;-85
2022/01/12 08:42:15;;;;;;;174.65;18.33;;;2.20;99.90;;;;;;6070945;23;20022;-84
2022/01/12 08:44:41;;;;;;;151.80;17.05;;;2.20;99.90;;;;;;6070246;23;20154;-85
2022/01/12 08:47:08;;;;;;;62.33;10.05;;;2.30;99.90;;;;;;6094352;23;20030;-85
2022/01/12 08:49:33;;;;;;;112.55;14.23;;;2.30;99.90;;;;;;6049728;23;20026;-86
2022/01/12 08:51:59;;;;;;;87.80;11.30;;;2.40;99.90;;;;;;6076467;23;20023;-84
2022/01/12 08:54:25;;;;;;;35.05;9.07;;;2.30;99.90;;;;;;6097985;23;20081;-84
2022/01/12 08:56:51;;;;;;;48.40;11.75;;;2.30;99.90;;;;;;6095905;23;20030;-83
2022/01/12 08:59:17;;;;;;;52.78;12.07;;;2.40;99.90;;;;;;6099532;23;20030;-83
2022/01/12 09:01:43;;;;;;;75.30;13.60;;;2.40;99.90;;;;;;6072649;23;20027;-82
2022/01/12 09:04:16;;;;;;;114.55;14.93;;;2.50;99.90;;;;;;6095288;23;20029;-83
2022/01/12 09:06:41;;;;;;;147.75;15.10;;;2.50;99.90;;;;;;6070806;23;20023;-83
2022/01/12 09:09:10;;;;;;;156.52;18.67;;;2.60;99.90;;;;;;6096414;23;20026;-83
2022/01/12 09:11:39;;;;;;;184.95;20.77;;;2.60;99.90;;;;;;6075467;23;20023;-84
2022/01/12 09:14:05;;;;;;;164.93;18.20;;;2.60;99.90;;;;;;6049750;23;20077;-83
2022/01/12 09:16:30;;;;;;;113.38;17.27;;;2.70;99.90;;;;;;6047061;23;20395;-84
2022/01/12 09:18:57;;;;;;;123.05;16.67;;;2.80;99.90;;;;;;6094338;23;20382;-84
2022/01/12 09:21:23;;;;;;;54.83;11.00;;;2.90;99.90;;;;;;6071086;23;20074;-85
2022/01/12 09:23:49;;;;;;;72.88;16.95;;;3.00;99.90;;;;;;6094552;23;20101;-82
2022/01/12 09:26:15;;;;;;;40.58;12.20;;;3.10;99.90;;;;;;6070287;23;20050;-82
2022/01/12 09:28:42;;;;;;;26.58;9.75;;;3.20;99.90;;;;;;6096069;23;20042;-84
2022/01/12 09:31:08;;;;;;;38.72;10.60;;;3.30;99.90;;;;;;6094200;23;20158;-83
2022/01/12 09:33:34;;;;;;;38.42;9.88;;;3.40;99.90;;;;;;6032102;23;20441;-83
2022/01/12 09:36:00;;;;;;;31.75;9.80;;;3.60;99.90;;;;;;6041898;23;20059;-83
2022/01/12 09:38:34;;;;;;;28.02;9.90;;;3.60;99.90;;;;;;6021619;23;20110;-83
2022/01/12 09:41:04;;;;;;;22.20;10.00;;;3.60;99.90;;;;;;5991388;23;20019;-83
2022/01/12 09:43:34;;;;;;;23.80;8.65;;;3.60;99.90;;;;;;6013445;23;20111;-82
2022/01/12 09:46:26;;;;;;;26.48;9.43;;;3.50;99.90;;;;;;6013724;23;20024;-82
2022/01/12 09:49:18;;;;;;;25.23;9.50;;;3.60;99.90;;;;;;5987962;23;20023;-84
2022/01/12 09:51:45;;;;;;;32.28;10.73;;;3.60;99.90;;;;;;5979779;23;20095;-82
2022/01/12 09:54:20;;;;;;;19.88;9.35;;;3.80;99.90;;;;;;5959909;24;20028;-83
2022/01/12 09:56:46;;;;;;;22.98;8.38;;;3.90;99.90;;;;;;5985383;23;20032;-83
2022/01/12 09:59:11;;;;;;;24.88;8.65;;;4.00;99.90;;;;;;5985475;23;20082;-85
2022/01/12 10:01:39;;;;;;;25.90;10.10;;;4.10;99.90;;;;;;5985263;23;20356;-83
2022/01/12 10:04:20;;;;;;;28.58;9.65;;;4.20;99.90;;;;;;6026657;23;20023;-84
2022/01/12 10:06:47;;;;;;;23.88;9.52;;;4.40;99.90;;;;;;6042450;23;20105;-84
2022/01/12 10:09:21;;;;;;;19.88;9.23;;;4.50;99.90;;;;;;6041815;23;20038;-84
2022/01/12 10:12:00;;;;;;;31.23;8.68;;;4.60;99.90;;;;;;5995672;23;20039;-84
2022/01/12 10:14:37;;;;;;;23.73;8.65;;;4.70;99.90;;;;;;6065669;23;20329;-84
2022/01/12 10:17:03;;;;;;;27.38;9.30;;;4.90;99.90;;;;;;6041947;23;20062;-84
2022/01/12 10:19:31;;;;;;;20.85;8.55;;;5.00;99.90;;;;;;6076706;23;20034;-83
2022/01/12 10:21:59;;;;;;;17.25;6.97;;;5.20;99.90;;;;;;6054179;23;20077;-83
2022/01/12 10:24:26;;;;;;;22.88;7.68;;;5.30;99.90;;;;;;6106616;23;20026;-83
2022/01/12 10:26:52;;;;;;;20.88;7.18;;;5.50;99.90;;;;;;6132566;23;20022;-82
2022/01/12 10:29:28;;;;;;;20.95;8.52;;;5.80;99.90;;;;;;6104154;23;20026;-85
2022/01/12 10:32:03;;;;;;;20.70;7.32;;;6.00;99.90;;;;;;6100191;23;20026;-85
2022/01/12 10:34:44;;;;;;;32.95;9.00;;;6.30;99.90;;;;;;6081550;23;20022;-84
2022/01/12 10:37:30;;;;;;;19.88;7.03;;;6.80;99.90;;;;;;6071709;23;20034;-85
2022/01/12 10:39:57;;;;;;;25.50;9.07;;;7.00;99.90;;;;;;6069334;23;20455;-83
2022/01/12 10:42:40;;;;;;;20.88;7.32;;;7.30;99.90;;;;;;6071259;23;20022;-84
2022/01/12 10:45:06;;;;;;;20.73;7.72;;;7.30;99.90;;;;;;6095572;23;20022;-84
2022/01/12 10:47:32;;;;;;;16.77;7.32;;;7.60;99.90;;;;;;6047182;23;20037;-85
2022/01/12 10:50:03;;;;;;;17.77;6.57;;;7.80;99.90;;;;;;6095678;23;20022;-85
2022/01/12 10:52:34;;;;;;;21.08;6.30;;;7.70;99.90;;;;;;6071527;23;20324;-85
2022/01/12 10:55:12;;;;;;;21.33;7.00;;;7.60;99.90;;;;;;6047549;23;20354;-85
2022/01/12 10:57:44;;;;;;;23.65;6.95;;;8.10;99.90;;;;;;6095580;23;20097;-85
2022/01/12 11:00:22;;;;;;;14.48;4.20;;;8.60;99.90;;;;;;6095807;23;20025;-85
2022/01/12 11:02:51;;;;;;;16.63;4.72;;;8.90;99.90;;;;;;6098327;23;20478;-86
2022/01/12 11:05:19;;;;;;;14.98;5.03;;;9.10;99.90;;;;;;6075813;23;20109;-85
2022/01/12 11:07:45;;;;;;;16.92;5.00;;;9.00;99.90;;;;;;6072048;23;20026;-86
2022/01/12 11:10:12;;;;;;;22.98;6.22;;;9.00;99.90;;;;;;6097491;23;20073;-86
2022/01/12 11:12:39;;;;;;;13.85;4.32;;;9.20;99.90;;;;;;6071196;23;20101;-86
2022/01/12 11:15:09;;;;;;;15.68;4.40;;;9.40;99.90;;;;;;6070271;23;20023;-86
2022/01/12 11:17:40;;;;;;;17.27;4.75;;;9.50;99.90;;;;;;6071638;23;20458;-85
2022/01/12 11:20:46;;;;;;;17.17;4.57;;;9.60;99.90;;;;;;6078780;23;20021;-85
2022/01/12 11:23:35;;;;;;;18.35;4.00;;;9.60;99.90;;;;;;6075122;23;20023;-85
2022/01/12 11:26:31;;;;;;;19.60;4.50;;;9.30;99.90;;;;;;6095663;23;20609;-85
2022/01/12 11:28:58;;;;;;;25.27;5.75;;;9.10;99.90;;;;;;6071508;23;20027;-85
2022/01/12 11:31:33;;;;;;;17.15;4.38;;;9.10;99.90;;;;;;6130692;23;20029;-84
2022/01/12 11:33:59;;;;;;;21.48;6.57;;;9.30;99.90;;;;;;6127414;23;20029;-85
2022/01/12 11:36:36;;;;;;;18.30;4.68;;;9.30;99.90;;;;;;6099895;23;20465;-85
2022/01/12 11:39:06;;;;;;;22.20;5.75;;;9.50;99.90;;;;;;6101768;23;20049;-85
2022/01/12 11:41:37;;;;;;;20.33;5.75;;;9.70;99.90;;;;;;6104476;23;20101;-86
2022/01/12 11:44:07;;;;;;;24.40;5.65;;;10.20;99.90;;;;;;6100629;23;20029;-85
2022/01/12 11:46:53;;;;;;;19.17;4.70;;;10.50;99.90;;;;;;6100099;23;20064;-83
2022/01/12 11:49:32;;;;;;;18.25;5.13;;;11.30;99.90;;;;;;6099684;23;20026;-84
2022/01/12 11:52:04;;;;;;;24.38;4.95;;;11.80;99.90;;;;;;6076382;23;20022;-84
2022/01/12 11:54:36;;;;;;;12.45;4.20;;;12.30;99.90;;;;;;6073023;23;20029;-85
2022/01/12 11:57:32;;;;;;;22.63;4.57;;;12.40;99.90;;;;;;6076703;23;20108;-85
2022/01/12 12:00:07;;;;;;;17.95;4.80;;;12.20;99.90;;;;;;6076706;23;20077;-83
2022/01/12 12:02:38;;;;;;;;;;;12.20;99.90;;;;;;6077833;23;20081;-84
2022/01/12 12:05:29;;;;;;;17.13;4.20;;;12.20;99.90;;;;;;6124717;23;19928;-85
2022/01/12 12:08:02;;;;;;;19.17;4.32;;;12.60;99.90;;;;;;6099534;23;20018;-83
2022/01/12 12:10:34;;;;;;;24.05;4.88;;;12.60;99.90;;;;;;6126800;23;20033;-85
2022/01/12 12:13:01;;;;;;;15.50;4.22;;;12.60;99.90;;;;;;6099805;23;20025;-84
2022/01/12 12:15:27;;;;;;;14.68;4.28;;;13.10;99.90;;;;;;6075607;23;20444;-85
2022/01/12 12:17:54;;;;;;;15.57;4.18;;;13.40;99.90;;;;;;6105000;23;20029;-85
2022/01/12 12:20:27;;;;;;;20.52;4.50;;;13.90;99.90;;;;;;6104961;23;20018;-84
2022/01/12 12:23:09;;;;;;;18.40;3.95;;;14.10;99.90;;;;;;6082386;23;20021;-84
2022/01/12 12:25:40;;;;;;;22.02;4.13;;;14.00;99.90;;;;;;6099455;23;20033;-85
2022/01/12 12:28:08;;;;;;;16.65;3.47;;;14.30;99.90;;;;;;6099762;23;20022;-84
2022/01/12 12:30:43;;;;;;;14.65;4.60;;;14.40;99.90;;;;;;6127240;23;20064;-85
2022/01/12 12:33:12;;;;;;;17.00;4.43;;;14.70;99.90;;;;;;6124385;23;20081;-83
2022/01/12 12:35:40;;;;;;;15.07;3.58;;;14.90;99.90;;;;;;6125897;23;20022;-83
2022/01/12 12:38:12;;;;;;;17.60;3.83;;;15.00;99.50;;;;;;6125784;23;20565;-84
2022/01/12 12:40:42;;;;;;;14.13;3.67;;;15.30;98.70;;;;;;6099973;23;20130;-84
2022/01/12 12:43:25;;;;;;;15.82;4.22;;;15.60;98.70;;;;;;6126605;23;20053;-84
2022/01/12 12:46:09;;;;;;;13.32;4.00;;;15.90;97.30;;;;;;6099706;23;20026;-83
2022/01/12 12:48:36;;;;;;;19.52;5.20;;;15.80;97.10;;;;;;6125513;23;20060;-84
2022/01/12 12:51:09;;;;;;;17.15;4.10;;;16.10;97.10;;;;;;6125186;23;20120;-84
2022/01/12 12:53:40;;;;;;;17.67;4.63;;;15.90;96.70;;;;;;6099697;23;20092;-84
2022/01/12 12:56:27;;;;;;;15.80;4.32;;;15.70;96.50;;;;;;6103967;23;20025;-83
2022/01/12 12:58:56;;;;;;;15.63;3.53;;;15.00;97.30;;;;;;6074000;23;20037;-83
2022/01/12 13:01:25;;;;;;;14.75;3.80;;;14.30;98.20;;;;;;6099470;23;20029;-83
2022/01/12 13:03:59;;;;;;;14.75;3.45;;;14.30;98.30;;;;;;6122533;23;20049;-82
2022/01/12 13:06:29;;;;;;;14.57;3.15;;;13.90;97.90;;;;;;6098092;23;20072;-84
2022/01/12 13:09:03;;;;;;;18.77;4.85;;;13.80;98.40;;;;;;6122965;23;20053;-83
2022/01/12 13:11:51;;;;;;;12.23;3.28;;;13.40;99.50;;;;;;6053422;23;20430;-84
2022/01/12 13:14:18;;;;;;;18.08;3.50;;;13.10;99.60;;;;;;6076400;23;20049;-83
2022/01/12 13:17:10;;;;;;;17.38;4.53;;;12.80;99.90;;;;;;6080049;23;20026;-84
2022/01/12 13:22:29;;;;;;;17.60;3.90;;;12.20;99.90;;;;;;6104352;23;20033;-85
2022/01/12 13:24:57;;;;;;;20.60;4.53;;;11.50;99.90;;;;;;6101527;23;20081;-84
2022/01/12 13:27:24;;;;;;;14.07;3.60;;;10.90;99.90;;;;;;6124983;23;20041;-85
2022/01/12 13:29:51;;;;;;;22.25;5.05;;;10.80;99.90;;;;;;6125179;23;20088;-84
2022/01/12 13:32:17;;;;;;;16.65;3.67;;;10.30;99.90;;;;;;6124841;23;20029;-84
2022/01/12 13:34:58;;;;;;;22.05;4.57;;;9.90;99.90;;;;;;6125882;23;20049;-86
2022/01/12 13:37:24;;;;;;;23.48;5.93;;;9.70;99.90;;;;;;6077546;23;20022;-83
2022/01/12 13:40:08;;;;;;;17.15;4.18;;;9.60;99.90;;;;;;6101081;23;20030;-84
2022/01/12 13:42:50;;;;;;;17.13;2.97;;;9.80;99.90;;;;;;6126257;23;20022;-85
2022/01/12 13:45:22;;;;;;;15.82;2.92;;;9.90;99.90;;;;;;6101287;23;20097;-85
2022/01/12 13:47:56;;;;;;;19.27;4.22;;;9.70;99.90;;;;;;6101573;23;20084;-85
2022/01/12 13:50:35;;;;;;;14.38;3.22;;;9.60;99.90;;;;;;6053900;23;20077;-85
2022/01/12 13:53:01;;;;;;;18.33;2.53;;;9.70;99.90;;;;;;6057156;23;20033;-86
2022/01/12 13:55:32;;;;;;;20.58;3.30;;;9.90;99.90;;;;;;6102592;23;20033;-86
2022/01/12 13:57:59;;;;;;;23.17;4.00;;;9.80;99.90;;;;;;6101698;23;20041;-86
2022/01/12 14:00:28;;;;;;;13.15;3.83;;;9.80;99.90;;;;;;6101303;23;20085;-85
2022/01/12 14:02:58;;;;;;;18.58;3.00;;;9.80;99.90;;;;;;6077631;23;20021;-85
2022/01/12 14:05:38;;;;;;;16.13;2.92;;;9.90;99.90;;;;;;6077271;23;20057;-85
2022/01/12 14:08:13;;;;;;;18.23;2.72;;;9.80;99.90;;;;;;6101464;23;20025;-86
2022/01/12 14:10:52;;;;;;;18.90;2.90;;;9.60;99.90;;;;;;6101461;23;20022;-86
2022/01/12 14:13:27;;;;;;;17.35;2.83;;;9.30;99.90;;;;;;6079976;23;20391;-85
2022/01/12 14:16:10;;;;;;;17.10;3.40;;;9.10;99.90;;;;;;6079280;23;20018;-85
2022/01/12 14:18:38;;;;;;;16.40;2.45;;;8.90;99.90;;;;;;6078831;23;20088;-86
2022/01/12 14:21:16;;;;;;;12.15;2.53;;;8.70;99.90;;;;;;6107270;23;20032;-86